Time;durP1;ratioP1;P1;durP2;ratioP2;P2;SDS_P1;SDS_P2;PMS_P1;PMS_P2;Temp;Humidity;BMP_temperature;BMP_pressure;BME280_temperature;BME280_humidity;BME280_pressure;Samples;Min_cycle;Max_cycle;Signal;HPM_P1;HPM_P2
2024/01/28 00:01:01;;;;;;;11.80;4.63;;;1.10;99.90;;;;;;5094588;28;20460;-63
2024/01/28 00:03:29;;;;;;;7.73;4.90;;;1.10;99.90;;;;;;5096353;28;20499;-63
2024/01/28 00:05:56;;;;;;;18.00;5.73;;;1.10;99.90;;;;;;5097400;28;20488;-63
2024/01/28 00:08:25;;;;;;;7.97;4.10;;;1.20;99.90;;;;;;5097060;28;20486;-63
2024/01/28 00:10:55;;;;;;;16.87;6.33;;;1.20;99.90;;;;;;5095970;28;20503;-64
2024/01/28 00:13:24;;;;;;;16.00;5.63;;;1.20;99.90;;;;;;5096365;28;20463;-63
2024/01/28 00:15:54;;;;;;;12.10;5.33;;;1.30;99.90;;;;;;5096396;28;20466;-63
2024/01/28 00:18:21;;;;;;;17.60;5.87;;;1.40;99.90;;;;;;5096181;28;20928;-63
2024/01/28 00:20:49;;;;;;;13.53;5.67;;;1.40;99.90;;;;;;5095965;28;20960;-63
2024/01/28 00:23:16;;;;;;;10.03;4.80;;;1.50;93.80;;;;;;5096285;28;20500;-63
2024/01/28 00:25:44;;;;;;;14.87;4.70;;;1.50;8.90;;;;;;5097014;28;20488;-63
2024/01/28 00:28:13;;;;;;;8.53;5.10;;;1.50;1.00;;;;;;5097634;28;20435;-63
2024/01/28 00:30:40;;;;;;;8.80;4.93;;;1.60;1.00;;;;;;5098261;28;20744;-63
2024/01/28 00:33:08;;;;;;;7.73;3.90;;;1.70;1.00;;;;;;5101024;28;20439;-63
2024/01/28 00:35:36;;;;;;;8.20;4.20;;;1.80;1.00;;;;;;5101019;28;20557;-62
2024/01/28 00:38:03;;;;;;;12.03;5.67;;;1.80;1.00;;;;;;5101152;28;20435;-62
2024/01/28 00:40:31;;;;;;;9.27;4.83;;;1.70;1.00;;;;;;5101238;28;20912;-63
2024/01/28 00:42:59;;;;;;;13.13;4.60;;;1.70;1.00;;;;;;5100723;28;20467;-62
2024/01/28 00:45:28;;;;;;;7.90;4.20;;;1.60;1.00;;;;;;5099978;28;20431;-62
2024/01/28 00:47:55;;;;;;;8.03;4.20;;;1.70;1.00;;;;;;5099859;28;20455;-63
2024/01/28 00:50:23;;;;;;;8.83;3.63;;;1.70;1.00;;;;;;5100279;28;20502;-62
2024/01/28 00:52:51;;;;;;;14.93;4.63;;;1.70;1.00;;;;;;5099560;28;20804;-63
2024/01/28 00:55:18;;;;;;;10.30;4.03;;;1.80;1.00;;;;;;5099516;28;20464;-63
2024/01/28 00:57:46;;;;;;;8.93;4.40;;;1.80;1.00;;;;;;5100002;28;20492;-63
2024/01/28 01:00:15;;;;;;;9.50;4.67;;;1.80;1.00;;;;;;5100714;28;20461;-62
2024/01/28 01:02:45;;;;;;;13.77;4.47;;;1.80;1.00;;;;;;5099255;28;20481;-63
2024/01/28 01:05:13;;;;;;;10.57;5.57;;;1.80;1.00;;;;;;5099348;28;20852;-63
2024/01/28 01:07:40;;;;;;;7.53;4.30;;;1.90;1.00;;;;;;5099049;28;20495;-63
2024/01/28 01:10:09;;;;;;;10.83;4.17;;;1.90;1.00;;;;;;5099145;28;20727;-63
2024/01/28 01:12:37;;;;;;;9.17;3.80;;;1.90;1.00;;;;;;5099156;28;20438;-63
2024/01/28 01:15:05;;;;;;;14.80;4.40;;;1.90;1.00;;;;;;5099455;28;20457;-62
2024/01/28 01:17:33;;;;;;;9.43;4.37;;;1.80;1.00;;;;;;5100068;28;20452;-62
2024/01/28 01:20:03;;;;;;;10.27;5.10;;;1.70;1.00;;;;;;5100590;28;20435;-62
2024/01/28 01:22:30;;;;;;;10.97;4.97;;;1.50;1.00;;;;;;5100305;28;20811;-62
2024/01/28 01:24:57;;;;;;;9.13;3.70;;;1.40;1.00;;;;;;5100762;28;20871;-63
2024/01/28 01:27:25;;;;;;;11.80;4.23;;;1.60;1.00;;;;;;5100446;28;20474;-62
2024/01/28 01:29:52;;;;;;;8.53;4.00;;;1.70;1.00;;;;;;5100346;28;20431;-63
2024/01/28 01:32:20;;;;;;;8.40;3.77;;;1.70;1.00;;;;;;5100267;28;20747;-63
2024/01/28 01:34:47;;;;;;;9.27;4.60;;;1.70;1.00;;;;;;5100430;28;20747;-62
2024/01/28 01:37:16;;;;;;;7.70;4.30;;;1.60;1.00;;;;;;5099548;28;20499;-63
2024/01/28 01:39:43;;;;;;;7.00;4.00;;;1.60;1.00;;;;;;5100137;28;20905;-62
2024/01/28 01:42:11;;;;;;;8.33;3.90;;;1.60;1.00;;;;;;5100249;28;20735;-62
2024/01/28 01:44:38;;;;;;;11.00;4.67;;;1.60;1.00;;;;;;5099873;28;20500;-62
2024/01/28 01:47:06;;;;;;;10.50;4.03;;;1.60;1.00;;;;;;5099740;28;20496;-62
2024/01/28 01:49:33;;;;;;;8.33;3.97;;;1.90;1.00;;;;;;5099653;28;20761;-62
2024/01/28 01:52:01;;;;;;;8.47;3.47;;;1.90;1.00;;;;;;5100074;28;20461;-64
2024/01/28 01:54:30;;;;;;;8.80;3.33;;;1.90;1.00;;;;;;5100053;28;20818;-62
2024/01/28 01:56:57;;;;;;;7.40;3.13;;;1.90;1.00;;;;;;5099555;28;20452;-62
2024/01/28 01:59:25;;;;;;;7.87;3.50;;;1.80;1.00;;;;;;5099799;28;20886;-62
2024/01/28 02:01:55;;;;;;;12.30;4.33;;;1.70;1.00;;;;;;5099670;28;20461;-62
2024/01/28 02:04:22;;;;;;;10.07;3.40;;;1.80;1.00;;;;;;5099060;28;20550;-62
2024/01/28 02:06:50;;;;;;;9.83;3.37;;;1.80;1.00;;;;;;5099188;28;20470;-62
2024/01/28 02:09:18;;;;;;;6.77;3.67;;;1.90;1.00;;;;;;5099585;28;20747;-63
2024/01/28 02:11:47;;;;;;;9.20;3.33;;;1.90;1.00;;;;;;5099262;28;20480;-62
2024/01/28 02:14:21;;;;;;;8.73;3.40;;;1.90;1.00;;;;;;5099708;28;20754;-62
2024/01/28 02:16:49;;;;;;;5.40;2.90;;;2.00;1.00;;;;;;5099023;28;20426;-62
2024/01/28 02:19:16;;;;;;;8.43;3.50;;;2.00;1.00;;;;;;5098920;28;20464;-62
2024/01/28 02:21:43;;;;;;;5.17;3.10;;;1.90;1.00;;;;;;5099433;28;20456;-63
2024/01/28 02:24:13;;;;;;;12.17;3.67;;;1.90;1.00;;;;;;5098618;28;20510;-62
2024/01/28 02:26:41;;;;;;;7.67;3.57;;;1.90;1.00;;;;;;5098403;28;20492;-62
2024/01/28 02:29:08;;;;;;;4.60;2.90;;;2.00;1.00;;;;;;5099149;28;20877;-62
2024/01/28 02:31:35;;;;;;;5.17;3.00;;;2.00;1.00;;;;;;5099302;28;20878;-62
2024/01/28 02:34:03;;;;;;;7.40;3.30;;;2.10;1.00;;;;;;5098772;28;20905;-62
2024/01/28 02:36:31;;;;;;;5.27;3.13;;;2.20;1.00;;;;;;5098387;28;20464;-63
2024/01/28 02:38:59;;;;;;;8.30;3.30;;;2.20;1.00;;;;;;5098943;28;20460;-62
2024/01/28 02:41:27;;;;;;;15.40;4.43;;;2.30;99.90;;;;;;5099288;28;20431;-64
2024/01/28 02:43:55;;;;;;;10.83;3.90;;;2.30;99.90;;;;;;5100609;28;20483;-64
2024/01/28 02:46:22;;;;;;;6.50;3.13;;;2.40;99.90;;;;;;5099699;28;20541;-64
2024/01/28 02:48:49;;;;;;;5.97;2.80;;;2.40;99.90;;;;;;5099692;28;20453;-64
2024/01/28 02:51:17;;;;;;;5.23;3.43;;;2.30;99.90;;;;;;5100052;28;20494;-64
2024/01/28 02:53:44;;;;;;;10.33;3.53;;;2.20;99.90;;;;;;5099322;28;20465;-64
2024/01/28 02:56:11;;;;;;;7.93;2.83;;;2.20;99.90;;;;;;5100354;28;20914;-64
2024/01/28 02:58:40;;;;;;;4.13;2.70;;;2.10;99.90;;;;;;5099850;28;20481;-64
2024/01/28 03:01:07;;;;;;;7.90;3.60;;;2.20;99.90;;;;;;5099272;28;20840;-64
2024/01/28 03:03:35;;;;;;;5.27;2.90;;;2.30;99.90;;;;;;5099741;28;20926;-64
2024/01/28 03:06:03;;;;;;;4.60;2.60;;;2.30;99.90;;;;;;5100300;28;20795;-64
2024/01/28 03:08:31;;;;;;;12.00;3.20;;;2.20;99.90;;;;;;5107240;28;20532;-65
2024/01/28 03:10:58;;;;;;;8.20;3.20;;;2.10;99.90;;;;;;5119486;28;20928;-64
2024/01/28 03:13:25;;;;;;;5.73;2.80;;;2.10;99.90;;;;;;5119617;28;20464;-64
2024/01/28 03:15:55;;;;;;;7.43;2.73;;;2.10;99.90;;;;;;5120256;28;20489;-64
2024/01/28 03:18:22;;;;;;;6.40;3.03;;;2.10;99.90;;;;;;5119581;28;20488;-64
2024/01/28 03:20:50;;;;;;;6.00;2.73;;;2.10;99.90;;;;;;5119994;28;20512;-64
2024/01/28 03:23:19;;;;;;;6.83;2.77;;;2.20;99.90;;;;;;5119348;28;20491;-64
2024/01/28 03:25:47;;;;;;;7.63;3.20;;;2.10;99.90;;;;;;5119523;28;20460;-65
2024/01/28 03:28:15;;;;;;;4.90;2.50;;;2.00;99.90;;;;;;5119597;28;20515;-65
2024/01/28 03:30:42;;;;;;;5.60;2.87;;;1.80;99.90;;;;;;5119340;28;20463;-64
2024/01/28 03:33:11;;;;;;;5.90;3.23;;;1.90;99.90;;;;;;5119977;28;20459;-64
2024/01/28 03:35:39;;;;;;;7.87;3.60;;;2.00;99.90;;;;;;5119708;28;20460;-64
2024/01/28 03:38:07;;;;;;;7.70;3.20;;;2.10;99.90;;;;;;5119436;28;20455;-65
2024/01/28 03:40:34;;;;;;;4.77;2.80;;;2.20;99.90;;;;;;5119231;28;20444;-65
2024/01/28 03:43:01;;;;;;;7.23;2.70;;;2.20;99.90;;;;;;5119867;28;20504;-64
2024/01/28 03:45:29;;;;;;;4.80;2.30;;;2.00;99.90;;;;;;5119569;27;20490;-64
2024/01/28 03:47:56;;;;;;;11.60;2.90;;;1.80;99.90;;;;;;5119582;28;20494;-65
2024/01/28 03:50:25;;;;;;;5.73;2.30;;;1.80;99.90;;;;;;5119696;28;20508;-64
2024/01/28 03:52:52;;;;;;;11.90;3.40;;;1.70;99.90;;;;;;5120191;28;20459;-65
2024/01/28 03:55:19;;;;;;;5.17;2.80;;;1.70;99.90;;;;;;5119590;28;20493;-65
2024/01/28 03:57:46;;;;;;;5.50;2.67;;;1.60;99.90;;;;;;5119538;28;20463;-64
2024/01/28 04:00:15;;;;;;;5.77;3.13;;;1.60;99.90;;;;;;5120274;28;20481;-65
2024/01/28 04:02:42;;;;;;;6.33;2.90;;;1.60;99.90;;;;;;5119202;28;20554;-64
2024/01/28 04:05:10;;;;;;;5.27;2.70;;;1.70;99.90;;;;;;5120139;28;20456;-64
2024/01/28 04:07:38;;;;;;;5.20;3.07;;;1.70;99.90;;;;;;5124409;28;20469;-64
2024/01/28 04:10:07;;;;;;;4.97;2.90;;;1.80;99.90;;;;;;5124179;28;20441;-64
2024/01/28 04:12:34;;;;;;;7.90;4.20;;;1.80;99.90;;;;;;5123961;28;20434;-64
2024/01/28 04:15:01;;;;;;;9.73;2.80;;;1.80;99.90;;;;;;5123571;27;20458;-65
2024/01/28 04:17:28;;;;;;;5.50;2.50;;;1.60;99.90;;;;;;5124222;28;20479;-65
2024/01/28 04:19:56;;;;;;;4.40;2.43;;;1.50;99.90;;;;;;5123805;28;20440;-65
2024/01/28 04:22:23;;;;;;;5.40;2.93;;;1.60;99.90;;;;;;5122726;28;20528;-64
2024/01/28 04:24:52;;;;;;;4.63;2.33;;;1.60;99.90;;;;;;5123509;28;20455;-64
2024/01/28 04:27:19;;;;;;;7.33;2.90;;;1.40;99.90;;;;;;5123181;27;20496;-65
2024/01/28 04:29:46;;;;;;;10.63;3.27;;;1.40;99.90;;;;;;5123543;28;20767;-65
2024/01/28 04:32:14;;;;;;;6.13;2.40;;;1.50;99.90;;;;;;5123510;28;20448;-64
2024/01/28 04:34:41;;;;;;;5.27;2.40;;;1.50;99.90;;;;;;5123154;28;20557;-64
2024/01/28 04:37:09;;;;;;;4.90;2.47;;;1.70;99.90;;;;;;5123563;28;20458;-64
2024/01/28 04:39:36;;;;;;;4.30;2.50;;;1.60;99.90;;;;;;5123473;28;20463;-64
2024/01/28 04:42:06;;;;;;;11.43;2.80;;;1.70;99.90;;;;;;5123052;28;20458;-65
2024/01/28 04:44:33;;;;;;;4.43;2.77;;;1.60;99.90;;;;;;5128697;27;20528;-64
2024/01/28 04:47:00;;;;;;;4.17;2.67;;;1.50;99.90;;;;;;5130187;27;20507;-65
2024/01/28 04:49:27;;;;;;;5.67;2.60;;;1.20;99.90;;;;;;5144088;27;20544;-64
2024/01/28 04:51:54;;;;;;;6.13;2.53;;;1.20;99.90;;;;;;5144258;27;20553;-65
2024/01/28 04:54:22;;;;;;;5.53;2.50;;;1.20;99.90;;;;;;5143233;27;20523;-64
2024/01/28 04:56:50;;;;;;;6.90;2.80;;;1.00;99.90;;;;;;5143049;27;20459;-65
2024/01/28 04:59:18;;;;;;;8.70;2.73;;;1.10;99.90;;;;;;5143922;27;20557;-64
2024/01/28 05:01:45;;;;;;;7.57;3.23;;;1.00;99.90;;;;;;5143523;27;20484;-65
2024/01/28 05:04:13;;;;;;;4.13;2.50;;;1.00;99.90;;;;;;5144250;27;20454;-64
2024/01/28 05:06:40;;;;;;;5.10;2.40;;;0.90;99.90;;;;;;5143511;27;20462;-65
2024/01/28 05:09:08;;;;;;;6.77;2.60;;;1.00;99.90;;;;;;5143836;27;20486;-65
2024/01/28 05:11:36;;;;;;;8.63;3.43;;;1.00;99.90;;;;;;5143941;27;20492;-64
2024/01/28 05:14:04;;;;;;;6.30;3.30;;;0.90;99.90;;;;;;5144254;27;20459;-64
2024/01/28 05:16:33;;;;;;;5.43;2.77;;;0.90;99.90;;;;;;5142749;27;20505;-64
2024/01/28 05:19:02;;;;;;;3.87;2.70;;;0.80;99.90;;;;;;5143385;27;20511;-64
2024/01/28 05:21:29;;;;;;;4.63;2.53;;;0.80;99.90;;;;;;5143803;27;20443;-64
2024/01/28 05:23:56;;;;;;;5.97;2.60;;;0.90;99.90;;;;;;5143954;27;20482;-64
2024/01/28 05:26:23;;;;;;;7.33;2.60;;;0.90;99.90;;;;;;5143943;27;20457;-64
2024/01/28 05:28:50;;;;;;;5.33;2.67;;;1.00;99.90;;;;;;5143618;27;20493;-64
2024/01/28 05:31:17;;;;;;;6.50;3.00;;;1.00;99.90;;;;;;5143830;27;20507;-64
2024/01/28 05:33:47;;;;;;;6.83;3.00;;;1.20;99.90;;;;;;5143615;27;20475;-64
2024/01/28 05:36:15;;;;;;;4.50;2.20;;;1.30;99.90;;;;;;5143854;27;20524;-65
2024/01/28 05:38:44;;;;;;;7.00;3.00;;;1.50;99.90;;;;;;5142909;27;20744;-64
2024/01/28 05:41:11;;;;;;;5.13;2.70;;;1.40;99.90;;;;;;5142548;27;20433;-65
2024/01/28 05:43:39;;;;;;;4.77;2.53;;;1.40;99.90;;;;;;5142625;27;20494;-64
2024/01/28 05:46:06;;;;;;;5.33;2.50;;;1.40;99.90;;;;;;5142756;27;20455;-65
2024/01/28 05:48:34;;;;;;;6.97;3.20;;;1.40;99.90;;;;;;5142348;27;20584;-65
2024/01/28 05:51:03;;;;;;;3.50;2.20;;;1.50;99.90;;;;;;5135178;27;20452;-65
2024/01/28 05:53:30;;;;;;;4.20;2.57;;;1.50;99.90;;;;;;5121521;28;20494;-65
2024/01/28 05:55:57;;;;;;;3.27;2.20;;;1.50;99.90;;;;;;5122154;28;20498;-65
2024/01/28 05:58:25;;;;;;;5.90;2.30;;;1.60;99.90;;;;;;5121793;28;20892;-65
2024/01/28 06:00:52;;;;;;;7.13;4.97;;;1.70;99.90;;;;;;5121362;27;20466;-65
2024/01/28 06:03:19;;;;;;;4.87;2.47;;;1.60;99.90;;;;;;5121909;28;20892;-64
2024/01/28 06:05:47;;;;;;;5.90;2.40;;;1.60;99.90;;;;;;5122410;28;20524;-65
2024/01/28 06:08:16;;;;;;;4.97;2.00;;;1.60;99.90;;;;;;5121980;28;20517;-64
2024/01/28 06:10:43;;;;;;;5.23;2.73;;;1.60;99.90;;;;;;5121579;28;20479;-65
2024/01/28 06:13:11;;;;;;;4.47;2.30;;;1.60;99.90;;;;;;5121521;28;20885;-65
2024/01/28 06:15:38;;;;;;;3.47;2.40;;;1.50;99.90;;;;;;5121710;28;20512;-65
2024/01/28 06:18:06;;;;;;;8.83;2.77;;;1.50;99.90;;;;;;5122024;28;20557;-65
2024/01/28 06:20:35;;;;;;;4.57;2.70;;;1.40;99.90;;;;;;5121084;28;20901;-65
2024/01/28 06:23:02;;;;;;;3.90;2.10;;;1.40;99.90;;;;;;5121386;28;20467;-65
2024/01/28 06:25:31;;;;;;;3.80;2.40;;;1.40;99.90;;;;;;5121386;28;20509;-64
2024/01/28 06:27:58;;;;;;;4.07;2.47;;;1.50;99.90;;;;;;5120386;28;20494;-65
2024/01/28 06:30:27;;;;;;;9.30;3.10;;;1.50;99.90;;;;;;5121274;28;20813;-65
2024/01/28 06:32:54;;;;;;;9.87;2.77;;;1.40;99.90;;;;;;5121141;28;20460;-65
2024/01/28 06:35:22;;;;;;;4.40;2.57;;;1.50;99.90;;;;;;5121078;28;20430;-64
2024/01/28 06:37:49;;;;;;;4.87;2.27;;;1.60;99.90;;;;;;5121061;28;20455;-65
2024/01/28 06:40:16;;;;;;;3.90;2.50;;;1.60;99.90;;;;;;5120973;28;20504;-65
2024/01/28 06:42:45;;;;;;;6.03;2.73;;;1.70;99.90;;;;;;5121086;28;20488;-65
2024/01/28 06:45:12;;;;;;;5.77;2.07;;;1.70;99.90;;;;;;5120933;28;20551;-65
2024/01/28 06:47:40;;;;;;;6.87;2.63;;;1.90;99.90;;;;;;5120813;28;20530;-65
2024/01/28 06:50:08;;;;;;;11.27;5.90;;;2.00;99.90;;;;;;5121037;28;20456;-65
2024/01/28 06:52:35;;;;;;;14.03;7.30;;;2.10;99.90;;;;;;5120330;28;20912;-65
2024/01/28 06:55:04;;;;;;;9.67;4.90;;;2.30;99.90;;;;;;5120665;28;20470;-65
2024/01/28 06:57:32;;;;;;;18.27;10.07;;;2.30;99.90;;;;;;5120773;28;20434;-65
2024/01/28 07:00:00;;;;;;;20.63;10.73;;;2.20;99.90;;;;;;5120936;28;20479;-65
2024/01/28 07:02:28;;;;;;;8.47;5.00;;;2.10;99.90;;;;;;5120055;28;20785;-65
2024/01/28 07:04:55;;;;;;;12.40;6.40;;;2.20;99.90;;;;;;5120197;28;20528;-65
2024/01/28 07:07:22;;;;;;;5.07;2.70;;;2.20;99.90;;;;;;5119889;28;20430;-65
2024/01/28 07:09:50;;;;;;;5.97;2.50;;;2.30;99.90;;;;;;5120164;28;20537;-64
2024/01/28 07:12:17;;;;;;;4.70;3.07;;;2.40;99.90;;;;;;5119832;28;20450;-65
2024/01/28 07:14:44;;;;;;;5.60;2.60;;;2.40;99.90;;;;;;5118940;28;20456;-65
2024/01/28 07:17:13;;;;;;;8.20;4.57;;;2.40;99.90;;;;;;5120206;28;20947;-65
2024/01/28 07:19:41;;;;;;;5.60;4.00;;;2.60;99.90;;;;;;5119803;28;20487;-65
2024/01/28 07:22:11;;;;;;;5.40;4.37;;;2.60;99.90;;;;;;5120188;28;20459;-65
2024/01/28 07:24:39;;;;;;;4.40;2.60;;;2.60;99.90;;;;;;5119651;28;20459;-64
2024/01/28 07:27:06;;;;;;;4.70;1.97;;;2.60;99.90;;;;;;5119705;28;20466;-67
2024/01/28 07:29:33;;;;;;;3.80;2.30;;;2.60;99.90;;;;;;5119865;28;20494;-65
2024/01/28 07:32:01;;;;;;;4.10;3.30;;;2.70;99.90;;;;;;5119463;28;20456;-65
2024/01/28 07:34:29;;;;;;;6.03;3.90;;;2.80;99.90;;;;;;5119377;28;20481;-64
2024/01/28 07:36:57;;;;;;;3.77;2.73;;;2.80;99.90;;;;;;5119517;28;20487;-64
2024/01/28 07:39:24;;;;;;;4.60;2.43;;;2.70;99.90;;;;;;5120032;28;20452;-64
2024/01/28 07:41:52;;;;;;;5.73;2.30;;;2.80;99.90;;;;;;5120030;28;20456;-64
2024/01/28 07:44:19;;;;;;;3.67;2.90;;;2.90;99.90;;;;;;5119855;28;20483;-64
2024/01/28 07:46:47;;;;;;;5.60;1.70;;;2.90;99.90;;;;;;5119823;28;20464;-64
2024/01/28 07:49:14;;;;;;;3.20;1.93;;;2.90;99.90;;;;;;5119523;28;20491;-64
2024/01/28 07:51:43;;;;;;;3.50;2.10;;;2.90;99.90;;;;;;5119445;28;20880;-64
2024/01/28 07:54:10;;;;;;;2.87;2.03;;;3.00;99.90;;;;;;5119981;28;20489;-64
2024/01/28 07:56:37;;;;;;;4.07;2.60;;;3.00;99.90;;;;;;5119340;28;20459;-64
2024/01/28 07:59:05;;;;;;;4.23;1.90;;;3.10;99.90;;;;;;5119501;28;20600;-64
2024/01/28 08:01:32;;;;;;;3.20;2.33;;;3.20;99.90;;;;;;5119000;28;20498;-63
2024/01/28 08:03:59;;;;;;;3.13;2.17;;;3.20;99.90;;;;;;5119080;28;20543;-64
2024/01/28 08:06:27;;;;;;;5.40;2.40;;;3.30;99.90;;;;;;5118775;28;20461;-65
2024/01/28 08:08:56;;;;;;;4.30;2.00;;;3.30;99.90;;;;;;5118935;28;20503;-64
2024/01/28 08:11:23;;;;;;;2.77;2.03;;;3.50;99.90;;;;;;5119063;28;20537;-64
2024/01/28 08:13:51;;;;;;;11.40;6.00;;;3.70;99.90;;;;;;5118995;28;20894;-65
2024/01/28 08:16:18;;;;;;;11.90;7.93;;;3.70;99.90;;;;;;5118810;28;20470;-64
2024/01/28 08:18:46;;;;;;;6.10;3.70;;;3.80;99.90;;;;;;5117938;28;20463;-64
2024/01/28 08:21:13;;;;;;;6.20;4.23;;;3.90;99.90;;;;;;5118188;28;20452;-64
2024/01/28 08:23:40;;;;;;;8.20;5.63;;;4.00;99.90;;;;;;5118019;28;20463;-64
2024/01/28 08:26:09;;;;;;;9.87;5.67;;;4.10;99.90;;;;;;5117750;28;20452;-64
2024/01/28 08:28:37;;;;;;;6.60;4.10;;;4.40;99.90;;;;;;5117088;28;20590;-64
2024/01/28 08:31:07;;;;;;;12.20;5.27;;;4.50;99.90;;;;;;5115777;28;20491;-64
2024/01/28 08:33:35;;;;;;;7.83;3.90;;;4.80;99.90;;;;;;5117339;28;20460;-64
2024/01/28 08:36:02;;;;;;;10.03;5.23;;;4.90;99.90;;;;;;5117631;28;20479;-65
2024/01/28 08:38:31;;;;;;;10.27;6.93;;;5.10;99.90;;;;;;5117521;28;20455;-65
2024/01/28 08:40:58;;;;;;;5.50;3.20;;;5.20;99.90;;;;;;5117778;28;20466;-65
2024/01/28 08:43:27;;;;;;;3.07;2.43;;;5.20;99.90;;;;;;5117537;28;20456;-64
2024/01/28 08:45:56;;;;;;;4.53;2.67;;;5.40;99.90;;;;;;5117729;28;20499;-64
2024/01/28 08:48:23;;;;;;;5.30;2.70;;;5.50;99.90;;;;;;5117479;28;20505;-65
2024/01/28 08:50:51;;;;;;;5.17;2.73;;;5.60;99.90;;;;;;5118317;28;20477;-65
2024/01/28 08:53:18;;;;;;;7.40;2.80;;;5.70;99.90;;;;;;5121039;28;20897;-64
2024/01/28 08:55:45;;;;;;;3.80;2.37;;;5.80;99.90;;;;;;5121484;28;20455;-64
2024/01/28 08:58:13;;;;;;;3.60;2.60;;;6.00;99.90;;;;;;5121308;28;20750;-64
2024/01/28 09:00:42;;;;;;;3.80;2.37;;;6.10;99.90;;;;;;5120336;28;20452;-64
2024/01/28 09:03:09;;;;;;;4.90;2.53;;;6.30;99.90;;;;;;5111564;28;20958;-64
2024/01/28 09:05:37;;;;;;;7.57;3.33;;;6.40;99.90;;;;;;5102027;28;20467;-65
2024/01/28 09:08:05;;;;;;;5.27;2.97;;;6.50;99.90;;;;;;5113510;28;20499;-65
2024/01/28 09:10:32;;;;;;;7.30;3.00;;;6.70;99.90;;;;;;5100453;28;20494;-64
2024/01/28 09:13:00;;;;;;;4.20;2.50;;;6.70;99.90;;;;;;5110177;28;20474;-64
2024/01/28 09:15:27;;;;;;;4.93;3.20;;;6.70;99.90;;;;;;5120236;28;20460;-64
2024/01/28 09:17:56;;;;;;;4.00;2.67;;;6.90;99.90;;;;;;5119275;28;20546;-64
2024/01/28 09:20:24;;;;;;;4.63;2.70;;;7.10;99.90;;;;;;5118132;28;20451;-65
2024/01/28 09:22:51;;;;;;;8.07;2.60;;;7.20;99.90;;;;;;5118960;28;20459;-64
2024/01/28 09:25:19;;;;;;;6.63;3.13;;;7.30;99.90;;;;;;5119505;28;20754;-65
2024/01/28 09:27:48;;;;;;;6.30;2.43;;;7.40;99.90;;;;;;5118394;28;20459;-65
2024/01/28 09:30:16;;;;;;;6.47;2.73;;;7.50;99.90;;;;;;5118939;28;20491;-66
2024/01/28 09:32:43;;;;;;;5.93;2.77;;;7.60;99.90;;;;;;5118887;28;20566;-65
2024/01/28 09:35:12;;;;;;;4.77;2.57;;;7.80;99.90;;;;;;5119119;28;20455;-66
2024/01/28 09:37:39;;;;;;;4.20;2.90;;;8.00;99.90;;;;;;5118811;28;20451;-65
2024/01/28 09:40:08;;;;;;;6.20;3.43;;;8.10;99.90;;;;;;5118183;28;20633;-66
2024/01/28 09:42:40;;;;;;;6.47;2.90;;;8.20;99.90;;;;;;5118367;28;20513;-66
2024/01/28 09:45:10;;;;;;;3.50;2.67;;;8.40;99.90;;;;;;5118371;28;20550;-66
2024/01/28 09:47:38;;;;;;;4.27;2.40;;;8.40;99.90;;;;;;5120038;28;20858;-66
2024/01/28 09:50:07;;;;;;;4.13;3.10;;;8.50;99.90;;;;;;5119897;28;20529;-66
2024/01/28 09:52:36;;;;;;;4.03;2.80;;;8.50;99.90;;;;;;5120332;28;20466;-66
2024/01/28 09:55:05;;;;;;;3.03;2.33;;;8.70;99.90;;;;;;5118971;27;20463;-65
2024/01/28 09:57:34;;;;;;;3.30;3.00;;;8.80;99.90;;;;;;5118285;28;20463;-66
2024/01/28 10:00:02;;;;;;;6.10;4.20;;;9.10;99.90;;;;;;5116123;28;20925;-65
2024/01/28 10:02:31;;;;;;;4.20;2.47;;;9.30;99.90;;;;;;5117993;28;20455;-66
2024/01/28 10:04:58;;;;;;;8.00;3.37;;;9.40;99.90;;;;;;5118178;28;20462;-66
2024/01/28 10:07:26;;;;;;;5.33;2.70;;;9.60;99.90;;;;;;5117197;28;20460;-67
2024/01/28 10:09:55;;;;;;;9.13;2.87;;;9.80;99.90;;;;;;5118082;28;20491;-66
2024/01/28 10:12:22;;;;;;;5.50;2.90;;;9.80;99.90;;;;;;5118236;28;20448;-69
2024/01/28 10:14:53;;;;;;;4.77;2.50;;;9.90;99.90;;;;;;5118901;28;21018;-65
2024/01/28 10:17:22;;;;;;;3.53;2.97;;;10.00;99.90;;;;;;5116643;28;20482;-66
2024/01/28 10:19:50;;;;;;;3.47;2.30;;;10.10;99.90;;;;;;5117891;28;20745;-65
2024/01/28 10:22:19;;;;;;;4.90;2.80;;;10.10;99.90;;;;;;5118087;28;20749;-66
2024/01/28 10:24:47;;;;;;;3.30;2.60;;;10.20;99.90;;;;;;5118163;28;20458;-66
2024/01/28 10:27:16;;;;;;;8.13;3.70;;;10.50;99.90;;;;;;5118456;28;20509;-66
2024/01/28 10:29:47;;;;;;;4.10;2.33;;;10.50;99.90;;;;;;5119171;28;20461;-66
2024/01/28 10:32:15;;;;;;;5.20;3.10;;;10.40;99.90;;;;;;5119134;28;20459;-66
2024/01/28 10:34:43;;;;;;;4.80;2.73;;;10.40;99.90;;;;;;5103849;28;20494;-66
2024/01/28 10:37:13;;;;;;;4.03;3.50;;;10.70;99.90;;;;;;5110844;28;20455;-65
2024/01/28 10:39:44;;;;;;;4.50;3.10;;;10.90;99.90;;;;;;5118293;28;20448;-66
2024/01/28 10:42:18;;;;;;;5.27;2.73;;;10.90;99.90;;;;;;5115247;28;20512;-66
2024/01/28 10:44:50;;;;;;;4.63;3.00;;;11.00;99.90;;;;;;5117933;28;20559;-66
2024/01/28 10:47:19;;;;;;;3.80;2.37;;;11.10;99.90;;;;;;5117568;28;20455;-66
2024/01/28 10:49:51;;;;;;;5.67;3.50;;;11.30;99.90;;;;;;5117134;28;20495;-65
2024/01/28 10:52:21;;;;;;;4.30;3.23;;;11.20;99.90;;;;;;5117348;28;20456;-67
2024/01/28 10:54:50;;;;;;;6.57;5.93;;;11.00;99.90;;;;;;5117536;28;20455;-66
2024/01/28 10:57:22;;;;;;;5.40;3.23;;;11.10;99.90;;;;;;5116994;28;20483;-66
2024/01/28 10:59:52;;;;;;;6.23;3.20;;;11.20;99.90;;;;;;5117069;28;20539;-66
2024/01/28 11:02:21;;;;;;;4.80;2.87;;;11.30;99.90;;;;;;5116983;28;20455;-66
2024/01/28 11:04:49;;;;;;;3.43;2.87;;;11.40;99.90;;;;;;5118745;28;20512;-67
2024/01/28 11:07:19;;;;;;;7.90;4.70;;;11.40;99.90;;;;;;5118942;28;20455;-65
2024/01/28 11:09:47;;;;;;;11.60;7.00;;;11.50;99.90;;;;;;5118662;28;20487;-66
2024/01/28 11:12:15;;;;;;;8.20;6.17;;;11.50;99.90;;;;;;5118511;28;20588;-66
2024/01/28 11:14:44;;;;;;;9.10;6.10;;;11.70;99.90;;;;;;5118218;28;20456;-66
2024/01/28 11:17:12;;;;;;;10.27;7.07;;;11.80;99.90;;;;;;5118838;28;20455;-66
2024/01/28 11:19:40;;;;;;;12.83;8.50;;;12.00;99.90;;;;;;5118489;28;20452;-66
2024/01/28 11:22:16;;;;;;;7.77;5.40;;;12.20;99.90;;;;;;5117829;28;20459;-67
2024/01/28 11:24:52;;;;;;;6.37;3.17;;;12.20;99.90;;;;;;5118565;28;20508;-67
2024/01/28 11:27:21;;;;;;;5.40;3.43;;;12.10;99.90;;;;;;5117601;28;20474;-66
2024/01/28 11:29:55;;;;;;;5.80;3.67;;;12.20;99.90;;;;;;5118390;28;20599;-66
2024/01/28 11:32:34;;;;;;;3.27;2.97;;;12.30;99.90;;;;;;5118480;28;20454;-65
2024/01/28 11:35:01;;;;;;;4.53;3.43;;;12.40;99.90;;;;;;5118028;28;20466;-67
2024/01/28 11:37:29;;;;;;;3.93;2.87;;;12.40;99.90;;;;;;5117485;28;20455;-67
2024/01/28 11:40:04;;;;;;;4.87;3.00;;;12.40;99.90;;;;;;5118261;28;20475;-66
2024/01/28 11:42:32;;;;;;;3.97;2.40;;;12.60;99.90;;;;;;5117840;28;20742;-65
2024/01/28 11:45:01;;;;;;;6.77;3.37;;;12.70;99.90;;;;;;5118165;28;20464;-66
2024/01/28 11:47:30;;;;;;;4.90;3.03;;;12.70;99.90;;;;;;5117912;28;20759;-66
2024/01/28 11:49:57;;;;;;;5.70;3.20;;;12.70;99.90;;;;;;5117412;28;20494;-65
2024/01/28 11:52:26;;;;;;;8.73;3.13;;;12.70;99.90;;;;;;5116658;28;20494;-65
2024/01/28 11:54:54;;;;;;;3.63;2.90;;;12.80;99.90;;;;;;5117806;28;20512;-67
2024/01/28 11:57:22;;;;;;;5.07;2.57;;;12.80;99.90;;;;;;5116189;28;20452;-66
2024/01/28 11:59:49;;;;;;;3.77;2.60;;;12.70;99.90;;;;;;5116534;28;20455;-66
2024/01/28 12:02:19;;;;;;;5.63;3.37;;;12.80;99.90;;;;;;5116542;28;20461;-67
2024/01/28 12:04:47;;;;;;;3.50;2.47;;;13.00;99.90;;;;;;5117134;28;20500;-67
2024/01/28 12:07:15;;;;;;;3.20;2.43;;;13.20;99.90;;;;;;5116201;28;20537;-67
2024/01/28 12:09:42;;;;;;;3.50;2.80;;;13.20;99.90;;;;;;5115583;28;21022;-66
2024/01/28 12:12:10;;;;;;;5.53;3.40;;;13.30;99.90;;;;;;5115566;28;20471;-66
2024/01/28 12:14:38;;;;;;;3.70;2.70;;;13.40;99.90;;;;;;5114110;28;20456;-67
2024/01/28 12:17:07;;;;;;;3.30;2.90;;;13.40;99.90;;;;;;5115361;28;20460;-66
2024/01/28 12:19:39;;;;;;;3.47;2.70;;;13.40;99.90;;;;;;5115457;28;20512;-66
2024/01/28 12:22:11;;;;;;;3.40;2.63;;;13.20;99.90;;;;;;5115696;28;20460;-65
2024/01/28 12:24:45;;;;;;;4.17;2.83;;;13.20;99.90;;;;;;5117033;28;20958;-67
2024/01/28 12:27:13;;;;;;;3.77;3.37;;;13.20;99.90;;;;;;5118599;28;20459;-66
2024/01/28 12:29:42;;;;;;;4.43;2.93;;;13.20;99.90;;;;;;5121217;28;20923;-66
2024/01/28 12:32:10;;;;;;;3.67;2.60;;;13.30;99.90;;;;;;5122418;28;20508;-66
2024/01/28 12:34:40;;;;;;;4.67;2.60;;;13.40;99.90;;;;;;5122317;28;20483;-66
2024/01/28 12:37:08;;;;;;;3.83;2.50;;;13.40;99.90;;;;;;5122397;28;20514;-65
2024/01/28 12:39:35;;;;;;;4.90;2.67;;;13.50;99.90;;;;;;5121385;28;20546;-66
2024/01/28 12:42:03;;;;;;;3.40;2.43;;;13.50;99.90;;;;;;5120481;28;20512;-66
2024/01/28 12:44:31;;;;;;;2.90;2.60;;;13.50;99.90;;;;;;5120364;28;20843;-67
2024/01/28 12:46:59;;;;;;;3.93;3.00;;;13.50;99.90;;;;;;5120426;28;20455;-67
2024/01/28 12:49:27;;;;;;;5.00;3.20;;;13.50;99.90;;;;;;5120779;28;20515;-63
2024/01/28 12:51:59;;;;;;;3.97;2.60;;;13.50;99.90;;;;;;5119873;27;20463;-64
2024/01/28 12:54:27;;;;;;;4.40;2.70;;;13.70;99.90;;;;;;5119054;28;20464;-63
2024/01/28 12:56:55;;;;;;;4.73;2.70;;;13.60;99.90;;;;;;5120463;28;20422;-64
2024/01/28 12:59:23;;;;;;;5.77;2.93;;;13.50;99.90;;;;;;5120781;28;20459;-64